Latest Weather Observations for Outer Harbor (Black Pole)

IDS60801

Issued at 2:41 pm CST Thursday 28 May 2020 (issued every 10 minutes, with the page automatically refreshed every 10 minutes)

About weather observations | Map of weather stations | Latest weather observations for SA | Other Formats
Station Details ID: 023052 Name: BLACK POLE Lat: -34.73 Lon: 138.47 Height: 6.27 m
Data from the previous 72 hours. | See also: Recent months for locations in South Australia
Date/Time
CST
Temp
°C
App
Temp
°C
Dew
Point
°C
Rel
Hum
%
Delta-T
°C
Wind Press
QNH
hPa
Press
MSL
hPa
Rain since
9am
mm
Dir  Spd
km/h
Gust
km/h
Spd
kts
Gust
kts
28/02:30pm - - - - - NW 7 7 4 4 - - -
28/02:00pm - - - - - WNW 7 9 4 5 - - -
28/01:30pm - - - - - NW 9 9 5 5 - - -
28/01:00pm - - - - - NW 9 11 5 6 - - -
28/12:30pm - - - - - WNW 11 13 6 7 - - -
28/12:00pm - - - - - NW 11 15 6 8 - - -
28/11:30am - - - - - NW 13 15 7 8 - - -
28/11:00am - - - - - NNW 15 17 8 9 - - -
28/10:30am - - - - - NW 17 19 9 10 - - -
28/10:00am - - - - - NW 15 17 8 9 - - -
28/09:30am - - - - - NW 15 17 8 9 - - -
28/09:00am - - - - - NNW 15 17 8 9 - - -
28/08:30am - - - - - NNW 17 20 9 11 - - -
28/08:00am - - - - - N 17 22 9 12 - - -
28/07:30am - - - - - NNE 11 15 6 8 - - -
28/07:00am - - - - - NNE 13 15 7 8 - - -
28/06:30am - - - - - NNE 13 15 7 8 - - -
28/06:00am - - - - - NNE 9 13 5 7 - - -
28/05:30am - - - - - NNE 7 11 4 6 - - -
28/05:00am - - - - - NNE 7 11 4 6 - - -
28/04:30am - - - - - NNE 7 11 4 6 - - -
28/04:00am - - - - - N 9 11 5 6 - - -
28/03:30am - - - - - NNE 6 11 3 6 - - -
28/03:00am - - - - - NNE 7 11 4 6 - - -
28/02:30am - - - - - ENE 11 13 6 7 - - -
28/02:00am - - - - - NE 13 15 7 8 - - -
28/01:30am - - - - - N 7 11 4 6 - - -
28/01:00am - - - - - N 11 13 6 7 - - -
28/12:30am - - - - - N 13 13 7 7 - - -
28/12:00am - - - - - NNW 11 19 6 10 - - -
 
Date/Time
CST
Temp
°C
App
Temp
°C
Dew
Point
°C
Rel
Hum
%
Delta-T
°C
Wind Press
QNH
hPa
Press
MSL
hPa
Rain since
9am
mm
Dir  Spd
km/h
Gust
km/h
Spd
kts
Gust
kts
27/11:30pm - - - - - NNW 9 13 5 7 - - -
27/11:00pm - - - - - N 6 7 3 4 - - -
27/10:30pm - - - - - NNE 6 7 3 4 - - -
27/10:00pm - - - - - NNE 6 7 3 4 - - -
27/09:30pm - - - - - NE 4 4 2 2 - - -
27/09:00pm - - - - - ESE 6 7 3 4 - - -
27/08:30pm - - - - - E 7 9 4 5 - - -
27/08:00pm - - - - - E 7 7 4 4 - - -
27/07:30pm - - - - - SE 7 7 4 4 - - -
27/07:00pm - - - - - SSE 7 9 4 5 - - -
27/06:30pm - - - - - SSW 9 9 5 5 - - -
27/06:00pm - - - - - WSW 11 17 6 9 - - -
27/05:30pm - - - - - NW 11 13 6 7 - - -
27/05:00pm - - - - - NW 11 11 6 6 - - -
27/04:30pm - - - - - NW 11 15 6 8 - - -
27/04:00pm - - - - - NW 9 11 5 6 - - -
27/03:30pm - - - - - NNW 9 11 5 6 - - -
27/03:00pm - - - - - NNW 11 13 6 7 - - -
27/02:30pm - - - - - NW 9 11 5 6 - - -
27/02:00pm - - - - - NW 13 17 7 9 - - -
27/01:30pm - - - - - NNW 19 22 10 12 - - -
27/01:00pm - - - - - NNW 20 22 11 12 - - -
27/12:30pm - - - - - NNW 22 28 12 15 - - -
27/12:00pm - - - - - NNW 24 28 13 15 - - -
27/11:30am - - - - - NW 28 33 15 18 - - -
27/11:00am - - - - - NNW 26 32 14 17 - - -
27/10:30am - - - - - NNW 26 30 14 16 - - -
27/10:00am - - - - - NNW 24 30 13 16 - - -
27/09:30am - - - - - NNW 24 32 13 17 - - -
27/09:00am - - - - - N 22 26 12 14 - - -
27/08:30am - - - - - N 20 24 11 13 - - -
27/08:00am - - - - - N 24 30 13 16 - - -
27/07:30am - - - - - N 20 24 11 13 - - -
27/07:00am - - - - - N 15 19 8 10 - - -
27/06:30am - - - - - NNW 15 19 8 10 - - -
27/06:00am - - - - - N 17 20 9 11 - - -
27/05:30am - - - - - N 17 20 9 11 - - -
27/05:00am - - - - - N 20 26 11 14 - - -
27/04:30am - - - - - N 20 26 11 14 - - -
27/04:00am - - - - - N 20 24 11 13 - - -
27/03:30am - - - - - N 20 26 11 14 - - -
27/03:00am - - - - - N 19 22 10 12 - - -
27/02:30am - - - - - N 17 22 9 12 - - -
27/02:00am - - - - - N 17 24 9 13 - - -
27/01:30am - - - - - N 22 26 12 14 - - -
27/01:00am - - - - - N 22 24 12 13 - - -
27/12:30am - - - - - N 22 30 12 16 - - -
27/12:00am - - - - - N 22 28 12 15 - - -
 
Date/Time
CST
Temp
°C
App
Temp
°C
Dew
Point
°C
Rel
Hum
%
Delta-T
°C
Wind Press
QNH
hPa
Press
MSL
hPa
Rain since
9am
mm
Dir  Spd
km/h
Gust
km/h
Spd
kts
Gust
kts
26/11:30pm - - - - - N 20 28 11 15 - - -
26/11:00pm - - - - - NNE 19 24 10 13 - - -
26/10:30pm - - - - - NNE 19 24 10 13 - - -
26/10:00pm - - - - - NNE 17 19 9 10 - - -
26/09:30pm - - - - - N 17 20 9 11 - - -
26/09:00pm - - - - - NNE 15 19 8 10 - - -
26/08:30pm - - - - - NNE 13 17 7 9 - - -
26/08:00pm - - - - - NNE 15 19 8 10 - - -
26/07:30pm - - - - - N 15 19 8 10 - - -
26/07:00pm - - - - - N 15 19 8 10 - - -
26/06:30pm - - - - - N 11 15 6 8 - - -
26/06:00pm - - - - - N 11 13 6 7 - - -
26/05:30pm - - - - - N 17 20 9 11 - - -
26/05:00pm - - - - - NNE 19 22 10 12 - - -
26/04:30pm - - - - - NNE 15 19 8 10 - - -
26/04:00pm - - - - - N 24 33 13 18 - - -
26/03:30pm - - - - - N 22 30 12 16 - - -
26/03:00pm - - - - - N 22 26 12 14 - - -
26/02:30pm - - - - - N 22 28 12 15 - - -
26/02:00pm - - - - - N 30 35 16 19 - - -
26/01:30pm - - - - - N 26 33 14 18 - - -
26/01:00pm - - - - - N 30 35 16 19 - - -
26/12:30pm - - - - - NNW 28 33 15 18 - - -
26/12:00pm - - - - - NNW 26 32 14 17 - - -
26/11:30am - - - - - NNW 32 39 17 21 - - -
26/11:00am - - - - - N 28 33 15 18 - - -
26/10:30am - - - - - N 30 37 16 20 - - -
26/10:00am - - - - - NNE 24 30 13 16 - - -
26/09:30am - - - - - NNE 22 28 12 15 - - -
26/09:00am - - - - - NE 22 28 12 15 - - -
26/08:30am - - - - - NE 22 26 12 14 - - -
26/08:00am - - - - - NE 24 30 13 16 - - -
26/07:30am - - - - - NE 24 30 13 16 - - -
26/07:00am - - - - - NE 22 28 12 15 - - -
26/06:30am - - - - - NE 28 32 15 17 - - -
26/06:00am - - - - - NE 24 28 13 15 - - -
26/05:30am - - - - - NE 22 28 12 15 - - -
26/05:00am - - - - - NE 22 26 12 14 - - -
26/04:30am - - - - - NE 22 26 12 14 - - -
26/04:00am - - - - - NE 20 24 11 13 - - -
26/03:30am - - - - - NE 15 19 8 10 - - -
26/03:00am - - - - - NE 15 17 8 9 - - -
26/02:30am - - - - - NE 17 20 9 11 - - -
26/02:00am - - - - - NE 19 22 10 12 - - -
26/01:30am - - - - - NE 17 20 9 11 - - -
26/01:00am - - - - - NE 15 17 8 9 - - -
26/12:30am - - - - - NNE 13 17 7 9 - - -
26/12:00am - - - - - NNE 15 19 8 10 - - -
 
Date/Time
CST
Temp
°C
App
Temp
°C
Dew
Point
°C
Rel
Hum
%
Delta-T
°C
Wind Press
QNH
hPa
Press
MSL
hPa
Rain since
9am
mm
Dir  Spd
km/h
Gust
km/h
Spd
kts
Gust
kts
25/11:30pm - - - - - NNE 17 19 9 10 - - -
25/11:00pm - - - - - NNE 20 24 11 13 - - -
25/10:30pm - - - - - NNE 19 24 10 13 - - -
25/10:00pm - - - - - NNE 15 20 8 11 - - -
25/09:30pm - - - - - NE 22 28 12 15 - - -
25/09:00pm - - - - - NE 24 28 13 15 - - -
25/08:30pm - - - - - NE 28 32 15 17 - - -
25/08:00pm - - - - - ENE 22 26 12 14 - - -
25/07:30pm - - - - - NE 19 24 10 13 - - -
25/07:00pm - - - - - ENE 20 26 11 14 - - -
25/06:30pm - - - - - ENE 22 26 12 14 - - -
25/06:00pm - - - - - NE 15 19 8 10 - - -
25/05:30pm - - - - - NE 13 17 7 9 - - -
25/05:00pm - - - - - ENE 15 19 8 10 - - -
25/04:30pm - - - - - ENE 19 22 10 12 - - -
25/04:00pm - - - - - ENE 19 22 10 12 - - -
25/03:30pm - - - - - NE 17 20 9 11 - - -
25/03:00pm - - - - - NE 11 15 6 8 - - -

Other formats

Comma delimited format used in spreadsheet applications
http://www.bom.gov.au/fwo/IDS60801/IDS60801.95675.axf

JavaScript Object Notation format (JSON) in row-major order
http://www.bom.gov.au/fwo/IDS60801/IDS60801.95675.json

Data quality

Most of these data are generated automatically and are frequently updated. Quality checks on data are not normally performed. It is possible for incorrect values to appear. Refer to information at About Latest Weather Observations and please check the disclaimer before using these data.